createdAt,value
2023-09-17T00:01:40.814Z,9.00
2023-09-17T00:04:08.624Z,9.55
2023-09-17T00:06:36.379Z,9.73
2023-09-17T00:09:04.809Z,9.68
2023-09-17T00:11:33.872Z,9.02
2023-09-17T00:14:01.527Z,9.07
2023-09-17T00:16:32.455Z,9.30
2023-09-17T00:19:00.700Z,9.55
2023-09-17T00:21:28.321Z,9.60
2023-09-17T00:23:56.006Z,9.25
2023-09-17T00:26:23.714Z,9.57
2023-09-17T00:28:53.508Z,8.65
2023-09-17T00:31:21.297Z,9.18
2023-09-17T00:33:49.207Z,9.30
2023-09-17T00:36:17.054Z,9.23
2023-09-17T00:38:44.613Z,9.10
2023-09-17T00:41:12.273Z,9.05
2023-09-17T00:43:40.002Z,9.20
2023-09-17T00:46:09.537Z,9.25
2023-09-17T00:48:38.438Z,9.30
2023-09-17T00:51:06.601Z,9.40
2023-09-17T00:53:34.798Z,8.70
2023-09-17T00:56:02.783Z,9.20
2023-09-17T00:58:32.978Z,8.77
2023-09-17T01:01:01.973Z,8.98
2023-09-17T01:03:32.301Z,9.10
2023-09-17T01:06:04.732Z,9.10
2023-09-17T01:08:33.113Z,9.52
2023-09-17T01:11:02.522Z,10.00
2023-09-17T01:13:30.524Z,10.05
2023-09-17T01:16:00.405Z,9.83
2023-09-17T01:18:28.823Z,9.77
2023-09-17T01:21:06.156Z,9.75
2023-09-17T01:23:38.952Z,9.68
2023-09-17T01:26:14.525Z,9.35
2023-09-17T01:28:43.707Z,9.77
2023-09-17T01:31:11.896Z,10.30
2023-09-17T01:33:39.566Z,10.02
2023-09-17T01:36:12.301Z,9.88
2023-09-17T01:38:47.210Z,9.40
2023-09-17T01:41:16.663Z,10.10
2023-09-17T01:43:46.840Z,9.68
2023-09-17T01:46:17.537Z,10.10
2023-09-17T01:48:47.772Z,10.25
2023-09-17T01:51:15.779Z,9.63
2023-09-17T01:53:43.906Z,10.40
2023-09-17T01:56:14.364Z,9.50
2023-09-17T01:58:42.079Z,9.80
2023-09-17T02:01:11.414Z,9.50
2023-09-17T02:03:39.200Z,9.63
2023-09-17T02:06:07.010Z,9.33
2023-09-17T02:08:40.278Z,9.52
2023-09-17T02:11:07.882Z,9.50
2023-09-17T02:13:35.574Z,9.38
2023-09-17T02:16:04.018Z,9.50
2023-09-17T02:18:33.111Z,9.40
2023-09-17T02:21:00.752Z,8.77
2023-09-17T02:23:28.368Z,9.55
2023-09-17T02:25:56.014Z,9.00
2023-09-17T02:28:23.774Z,9.48
2023-09-17T02:30:52.900Z,8.93
2023-09-17T02:33:20.509Z,8.73
2023-09-17T02:35:51.570Z,8.60
2023-09-17T02:38:19.409Z,9.18
2023-09-17T02:40:47.060Z,8.70
2023-09-17T02:43:14.866Z,8.43
2023-09-17T02:45:42.985Z,9.35
2023-09-17T02:48:13.012Z,8.75
2023-09-17T02:50:41.572Z,8.95
2023-09-17T02:53:10.611Z,7.95
2023-09-17T02:55:38.249Z,8.87
2023-09-17T02:58:06.099Z,9.18
2023-09-17T03:00:35.283Z,9.52
2023-09-17T03:03:04.258Z,8.35
2023-09-17T03:05:32.030Z,8.68
2023-09-17T03:08:01.741Z,8.23
2023-09-17T03:10:31.075Z,8.27
2023-09-17T03:12:58.898Z,8.50
2023-09-17T03:15:27.303Z,8.32
2023-09-17T03:17:56.439Z,8.38
2023-09-17T03:20:24.150Z,8.13
2023-09-17T03:22:52.061Z,8.40
2023-09-17T03:25:20.105Z,8.23
2023-09-17T03:27:51.013Z,7.90
2023-09-17T03:30:18.633Z,7.88
2023-09-17T03:33:01.879Z,7.90
2023-09-17T03:35:35.093Z,8.52
2023-09-17T03:38:03.078Z,8.77
2023-09-17T03:40:30.919Z,9.50
2023-09-17T03:42:59.908Z,9.90
2023-09-17T03:45:28.208Z,9.77
2023-09-17T03:47:56.022Z,9.23
2023-09-17T03:50:24.307Z,9.68
2023-09-17T03:52:55.295Z,9.88
2023-09-17T03:55:25.201Z,9.75
2023-09-17T03:57:54.155Z,9.33
2023-09-17T04:00:25.892Z,10.18
2023-09-17T04:02:56.054Z,9.43
2023-09-17T04:05:25.119Z,9.80
2023-09-17T04:07:52.868Z,9.70
2023-09-17T04:10:20.981Z,10.23
2023-09-17T04:12:48.691Z,10.20
2023-09-17T04:15:20.162Z,9.43
2023-09-17T04:17:50.915Z,9.23
2023-09-17T04:20:19.758Z,9.57
2023-09-17T04:22:49.972Z,9.40
2023-09-17T04:25:19.722Z,9.18
2023-09-17T04:27:48.972Z,9.52
2023-09-17T04:30:19.816Z,8.90
2023-09-17T04:32:50.482Z,9.07
2023-09-17T04:35:19.508Z,9.40
2023-09-17T04:37:50.205Z,8.68
2023-09-17T04:40:25.829Z,9.48
2023-09-17T04:42:54.176Z,8.68
2023-09-17T04:45:34.620Z,8.20
2023-09-17T04:48:05.987Z,7.60
2023-09-17T04:50:35.035Z,8.63
2023-09-17T04:53:03.190Z,8.80
2023-09-17T04:55:31.235Z,9.10
2023-09-17T04:57:59.122Z,9.05
2023-09-17T05:00:27.046Z,8.57
2023-09-17T05:02:54.792Z,9.30
2023-09-17T05:05:26.460Z,9.32
2023-09-17T05:07:54.827Z,9.05
2023-09-17T05:10:22.869Z,9.25
2023-09-17T05:12:50.537Z,9.17
2023-09-17T05:15:18.377Z,8.98
2023-09-17T05:17:46.035Z,9.27
2023-09-17T05:20:13.815Z,9.35
2023-09-17T05:22:42.747Z,9.38
2023-09-17T05:25:11.647Z,9.20
2023-09-17T05:27:39.483Z,8.73
2023-09-17T05:30:08.985Z,9.23
2023-09-17T05:32:37.045Z,9.15
2023-09-17T05:35:05.459Z,9.13
2023-09-17T05:37:33.165Z,9.73
2023-09-17T05:40:06.536Z,9.60
2023-09-17T05:42:35.109Z,9.38
2023-09-17T05:45:02.967Z,9.65
2023-09-17T05:47:30.926Z,9.82
2023-09-17T05:50:00.402Z,9.67
2023-09-17T05:52:32.339Z,9.82
2023-09-17T05:55:02.000Z,9.63
2023-09-17T05:57:31.266Z,9.43
2023-09-17T05:59:59.208Z,9.38
2023-09-17T06:02:28.416Z,10.40
2023-09-17T06:04:57.246Z,10.25
2023-09-17T06:07:26.034Z,9.13
2023-09-17T06:09:53.695Z,9.70
2023-09-17T06:12:21.323Z,9.55
2023-09-17T06:14:50.468Z,9.13
2023-09-17T06:17:18.237Z,10.20
2023-09-17T06:19:45.894Z,9.80
2023-09-17T06:22:13.595Z,10.13
2023-09-17T06:24:41.342Z,10.38
2023-09-17T06:27:08.995Z,10.13
2023-09-17T06:29:36.648Z,9.70
2023-09-17T06:32:06.283Z,9.68
2023-09-17T06:34:34.192Z,10.15
2023-09-17T06:37:02.335Z,10.40
2023-09-17T06:39:30.020Z,10.37
2023-09-17T06:41:57.809Z,10.70
2023-09-17T06:44:25.437Z,10.98
2023-09-17T06:46:53.202Z,10.82
2023-09-17T06:49:22.287Z,11.13
2023-09-17T06:51:50.171Z,10.53
2023-09-17T06:54:17.776Z,10.50
2023-09-17T06:56:45.428Z,10.18
2023-09-17T06:59:13.115Z,12.27
2023-09-17T07:01:42.936Z,26.73
2023-09-17T07:04:13.235Z,25.43
2023-09-17T07:06:42.499Z,10.70
2023-09-17T07:09:10.142Z,10.55
2023-09-17T07:11:37.736Z,9.95
2023-09-17T07:14:11.089Z,10.00
2023-09-17T07:16:40.025Z,10.30
2023-09-17T07:19:07.772Z,9.95
2023-09-17T07:21:35.353Z,9.75
2023-09-17T07:24:04.942Z,9.90
2023-09-17T07:26:32.592Z,9.35
2023-09-17T07:29:00.287Z,8.37
2023-09-17T07:31:28.014Z,9.23
2023-09-17T07:33:55.766Z,8.02
2023-09-17T07:36:23.503Z,8.73
2023-09-17T07:38:52.782Z,8.82
2023-09-17T07:41:21.700Z,8.77
2023-09-17T07:43:49.407Z,8.18
2023-09-17T07:46:17.273Z,8.68
2023-09-17T07:48:47.382Z,8.70
2023-09-17T07:51:15.087Z,9.55
2023-09-17T07:53:43.004Z,8.43
2023-09-17T07:56:11.486Z,7.90
2023-09-17T07:58:40.473Z,8.38
2023-09-17T08:01:08.180Z,8.18
2023-09-17T08:03:35.956Z,7.95
2023-09-17T08:06:04.193Z,7.57
2023-09-17T08:08:31.875Z,7.68
2023-09-17T08:10:59.521Z,7.80
2023-09-17T08:13:27.400Z,8.10
2023-09-17T08:15:56.448Z,8.13
2023-09-17T08:18:24.085Z,7.87
2023-09-17T08:20:51.615Z,7.60
2023-09-17T08:23:19.592Z,7.40
2023-09-17T08:25:47.373Z,7.50
2023-09-17T08:28:16.538Z,7.22
2023-09-17T08:30:44.210Z,7.13
2023-09-17T08:33:13.156Z,7.15
2023-09-17T08:35:41.033Z,7.03
2023-09-17T08:38:10.240Z,6.70
2023-09-17T08:40:40.464Z,6.90
2023-09-17T08:43:08.180Z,6.70
2023-09-17T08:45:35.932Z,7.00
2023-09-17T08:48:03.881Z,7.03
2023-09-17T08:50:36.621Z,6.57
2023-09-17T08:53:08.725Z,5.95
2023-09-17T08:55:36.796Z,6.30
2023-09-17T08:58:13.629Z,6.28
2023-09-17T09:00:46.865Z,6.10
2023-09-17T09:03:19.445Z,6.15
2023-09-17T09:05:51.779Z,6.30
2023-09-17T09:08:19.547Z,6.10
2023-09-17T09:10:47.354Z,6.20
2023-09-17T09:13:15.297Z,6.05
2023-09-17T09:15:43.270Z,6.18
2023-09-17T09:18:11.023Z,5.63
2023-09-17T09:20:39.274Z,5.70
2023-09-17T09:23:08.636Z,5.47
2023-09-17T09:25:36.851Z,5.85
2023-09-17T09:28:04.852Z,6.05
2023-09-17T09:30:32.980Z,6.00
2023-09-17T09:33:00.940Z,5.93
2023-09-17T09:35:31.208Z,5.70
2023-09-17T09:37:59.156Z,5.97
2023-09-17T09:40:28.200Z,5.95
2023-09-17T09:42:55.989Z,5.80
2023-09-17T09:45:24.550Z,5.73
2023-09-17T09:47:52.939Z,6.30
2023-09-17T09:50:24.435Z,6.30
2023-09-17T09:52:52.295Z,6.40
2023-09-17T09:55:21.314Z,5.93
2023-09-17T09:57:50.402Z,6.03
2023-09-17T10:00:21.405Z,6.30
2023-09-17T10:02:49.328Z,6.18
2023-09-17T10:05:19.678Z,6.30
2023-09-17T10:07:49.282Z,6.25
2023-09-17T10:10:17.100Z,6.37
2023-09-17T10:12:44.813Z,6.40
2023-09-17T10:15:14.941Z,5.88
2023-09-17T10:17:43.253Z,6.40
2023-09-17T10:20:12.768Z,6.15
2023-09-17T10:22:41.606Z,5.90
2023-09-17T10:25:11.200Z,5.90
2023-09-17T10:27:39.503Z,5.22
2023-09-17T10:30:10.486Z,5.70
2023-09-17T10:32:39.451Z,5.80
2023-09-17T10:35:09.213Z,5.93
2023-09-17T10:37:38.970Z,5.80
2023-09-17T10:40:10.726Z,5.07
2023-09-17T10:42:39.485Z,5.13
2023-09-17T10:45:09.837Z,5.15
2023-09-17T10:47:42.073Z,5.23
2023-09-17T10:50:10.947Z,5.50
2023-09-17T10:52:38.599Z,5.20
2023-09-17T10:55:09.059Z,5.07
2023-09-17T10:57:41.589Z,4.75
2023-09-17T11:00:14.843Z,5.00
2023-09-17T11:02:49.482Z,4.60
2023-09-17T11:05:20.618Z,4.40
2023-09-17T11:07:49.551Z,4.97
2023-09-17T11:10:29.517Z,4.53
2023-09-17T11:13:00.244Z,4.70
2023-09-17T11:15:28.115Z,4.80
2023-09-17T11:18:02.649Z,4.93
2023-09-17T11:20:30.417Z,4.80
2023-09-17T11:22:58.495Z,5.13
2023-09-17T11:25:36.965Z,4.77
2023-09-17T11:28:12.569Z,4.80
2023-09-17T11:30:59.601Z,5.05
2023-09-17T11:33:28.985Z,4.30
2023-09-17T11:35:57.976Z,4.40
2023-09-17T11:38:26.484Z,4.07
2023-09-17T11:41:08.099Z,4.20
2023-09-17T11:43:37.694Z,4.50
2023-09-17T11:46:06.952Z,4.22
2023-09-17T11:48:36.823Z,3.97
2023-09-17T11:51:25.294Z,3.90
2023-09-17T11:53:55.396Z,4.20
2023-09-17T11:56:23.336Z,3.83
2023-09-17T11:59:01.783Z,4.50
2023-09-17T12:01:32.162Z,4.30
2023-09-17T12:04:01.745Z,4.13
2023-09-17T12:06:30.152Z,4.10
2023-09-17T12:09:13.048Z,4.10
2023-09-17T12:11:57.118Z,4.28
2023-09-17T12:14:25.376Z,4.50
2023-09-17T12:16:54.615Z,4.17
2023-09-17T12:19:23.788Z,4.20
2023-09-17T12:21:54.677Z,4.20
2023-09-17T12:24:24.696Z,3.97
2023-09-17T12:27:30.808Z,3.90
2023-09-17T12:29:58.630Z,4.00
2023-09-17T12:32:30.966Z,4.30
2023-09-17T12:35:00.005Z,4.32
2023-09-17T12:37:28.453Z,4.65
2023-09-17T12:39:56.322Z,3.90
2023-09-17T12:42:23.957Z,4.50
2023-09-17T12:44:52.373Z,4.40
2023-09-17T12:47:20.769Z,4.30
2023-09-17T12:49:48.680Z,4.38
2023-09-17T12:52:18.175Z,4.40
2023-09-17T12:54:45.890Z,4.20
2023-09-17T12:57:13.558Z,4.15
2023-09-17T12:59:41.947Z,4.00
2023-09-17T13:02:10.352Z,4.28
2023-09-17T13:04:39.545Z,4.50
2023-09-17T13:07:15.453Z,4.20
2023-09-17T13:09:44.945Z,4.40
2023-09-17T13:12:12.874Z,4.28
2023-09-17T13:14:40.741Z,4.60
2023-09-17T13:17:08.609Z,4.28
2023-09-17T13:19:36.365Z,4.03
2023-09-17T13:22:05.215Z,4.35
2023-09-17T13:24:34.361Z,4.47
2023-09-17T13:27:05.270Z,4.22
2023-09-17T13:29:41.505Z,4.68
2023-09-17T13:32:11.355Z,4.70
2023-09-17T13:34:39.660Z,4.68
2023-09-17T13:37:09.359Z,4.32
2023-09-17T13:39:40.115Z,4.88
2023-09-17T13:42:09.670Z,4.40
2023-09-17T13:44:37.342Z,4.57
2023-09-17T13:47:08.057Z,4.95
2023-09-17T13:49:35.662Z,4.40
2023-09-17T13:52:04.346Z,4.30
2023-09-17T13:54:31.912Z,4.70
2023-09-17T13:56:59.590Z,4.70
2023-09-17T13:59:28.559Z,4.25
2023-09-17T14:01:56.224Z,4.70
2023-09-17T14:04:24.207Z,4.47
2023-09-17T14:06:52.669Z,4.97
2023-09-17T14:09:20.353Z,5.10
2023-09-17T14:11:47.999Z,5.40
2023-09-17T14:14:15.635Z,4.95
2023-09-17T14:16:45.339Z,4.75
2023-09-17T14:19:18.605Z,5.00
2023-09-17T14:21:46.434Z,4.83
2023-09-17T14:24:14.120Z,5.00
2023-09-17T14:26:41.780Z,5.10
2023-09-17T14:29:09.507Z,5.22
2023-09-17T14:31:40.139Z,5.07
2023-09-17T14:34:11.813Z,5.10
2023-09-17T14:36:39.382Z,5.13
2023-09-17T14:39:07.558Z,5.53
2023-09-17T14:41:36.370Z,4.93
2023-09-17T14:44:03.989Z,5.38
2023-09-17T14:46:32.863Z,5.30
2023-09-17T14:49:00.486Z,5.78
2023-09-17T14:51:29.403Z,5.60
2023-09-17T14:53:57.005Z,5.63
2023-09-17T14:56:24.591Z,5.28
2023-09-17T14:58:52.687Z,5.17
2023-09-17T15:03:54.473Z,5.32
2023-09-17T15:06:22.198Z,5.45
2023-09-17T15:08:51.539Z,5.40
2023-09-17T15:11:19.318Z,5.10
2023-09-17T15:13:47.941Z,4.95
2023-09-17T15:16:16.434Z,5.35
2023-09-17T15:18:44.070Z,5.18
2023-09-17T15:21:11.759Z,5.35
2023-09-17T15:23:39.319Z,4.93
2023-09-17T15:26:08.357Z,5.30
2023-09-17T15:28:35.943Z,4.80
2023-09-17T15:31:04.674Z,5.18
2023-09-17T15:33:32.510Z,5.32
2023-09-17T15:36:00.289Z,4.70
2023-09-17T15:38:27.825Z,4.93
2023-09-17T15:40:56.218Z,5.07
2023-09-17T15:43:25.644Z,4.57
2023-09-17T15:45:53.331Z,4.78
2023-09-17T15:48:20.918Z,4.47
2023-09-17T15:50:52.417Z,4.85
2023-09-17T15:53:20.311Z,4.70
2023-09-17T15:55:47.922Z,4.53
2023-09-17T15:58:16.914Z,4.70
2023-09-17T16:00:45.903Z,5.10
2023-09-17T16:03:13.632Z,4.80
2023-09-17T16:05:41.973Z,4.72
2023-09-17T16:08:09.664Z,5.20
2023-09-17T16:10:37.616Z,4.55
2023-09-17T16:13:05.586Z,4.40
2023-09-17T16:15:33.501Z,4.60
2023-09-17T16:18:03.681Z,4.50
2023-09-17T16:20:31.412Z,4.90
2023-09-17T16:22:59.170Z,4.60
2023-09-17T16:25:26.865Z,4.60
2023-09-17T16:27:54.439Z,4.47
2023-09-17T16:30:22.258Z,4.43
2023-09-17T16:32:50.005Z,4.40
2023-09-17T16:35:19.365Z,4.35
2023-09-17T16:37:47.461Z,4.63
2023-09-17T16:40:15.130Z,4.88
2023-09-17T16:42:53.847Z,4.50
2023-09-17T16:45:29.841Z,4.20
2023-09-17T16:47:57.497Z,4.78
2023-09-17T16:50:29.394Z,4.57
2023-09-17T16:52:57.362Z,4.60
2023-09-17T16:55:24.963Z,4.70
2023-09-17T16:57:52.603Z,4.40
2023-09-17T17:00:21.483Z,4.85
2023-09-17T17:02:49.221Z,4.50
2023-09-17T17:05:17.159Z,4.60
2023-09-17T17:07:46.192Z,4.93
2023-09-17T17:10:13.920Z,5.00
2023-09-17T17:12:41.707Z,4.93
2023-09-17T17:15:10.016Z,4.37
2023-09-17T17:17:37.754Z,4.70
2023-09-17T17:20:08.105Z,4.45
2023-09-17T17:22:44.182Z,4.97
2023-09-17T17:25:13.831Z,5.00
2023-09-17T17:27:41.739Z,4.80
2023-09-17T17:30:11.336Z,4.90
2023-09-17T17:32:41.677Z,5.03
2023-09-17T17:35:10.307Z,5.30
2023-09-17T17:37:37.949Z,5.25
2023-09-17T17:40:06.399Z,5.17
2023-09-17T17:42:35.414Z,4.78
2023-09-17T17:45:03.677Z,5.22
2023-09-17T17:47:33.597Z,5.57
2023-09-17T17:50:01.522Z,5.40
2023-09-17T17:52:29.296Z,5.17
2023-09-17T17:54:56.952Z,5.15
2023-09-17T17:57:24.729Z,5.00
2023-09-17T17:59:53.644Z,5.20
2023-09-17T18:02:21.804Z,5.07
2023-09-17T18:04:49.549Z,5.20
2023-09-17T18:07:17.216Z,5.45
2023-09-17T18:09:45.181Z,4.80
2023-09-17T18:12:13.712Z,5.03
2023-09-17T18:14:41.451Z,5.22
2023-09-17T18:17:10.557Z,4.83
2023-09-17T18:19:38.304Z,4.97
2023-09-17T18:22:06.102Z,5.10
2023-09-17T18:24:33.715Z,5.40
2023-09-17T18:27:01.360Z,4.93
2023-09-17T18:29:31.346Z,5.03
2023-09-17T18:31:59.263Z,4.97
2023-09-17T18:34:28.687Z,5.30
2023-09-17T18:36:56.559Z,5.20
2023-09-17T18:39:24.230Z,5.15
2023-09-17T18:41:51.840Z,5.20
2023-09-17T18:44:20.019Z,4.93
2023-09-17T18:46:47.747Z,5.30
2023-09-17T18:49:19.926Z,5.35
2023-09-17T18:51:49.457Z,5.47
2023-09-17T18:54:17.285Z,5.53
2023-09-17T18:56:45.210Z,5.47
2023-09-17T18:59:13.127Z,5.47
2023-09-17T19:01:41.315Z,5.20
2023-09-17T19:04:09.055Z,5.15
2023-09-17T19:06:37.493Z,5.10
2023-09-17T19:09:06.864Z,5.55
2023-09-17T19:11:35.294Z,5.88
2023-09-17T19:14:03.268Z,5.20
2023-09-17T19:16:31.616Z,5.13
2023-09-17T19:18:59.256Z,5.40
2023-09-17T19:21:26.987Z,5.78
2023-09-17T19:23:55.327Z,5.28
2023-09-17T19:26:24.386Z,5.45
2023-09-17T19:28:52.011Z,5.65
2023-09-17T19:31:19.752Z,5.63
2023-09-17T19:33:47.833Z,5.50
2023-09-17T19:36:15.525Z,5.90
2023-09-17T19:38:43.414Z,5.80
2023-09-17T19:41:11.145Z,5.30
2023-09-17T19:43:41.881Z,5.70
2023-09-17T19:46:09.680Z,5.25
2023-09-17T19:48:37.434Z,5.80
2023-09-17T19:51:05.082Z,5.50
2023-09-17T19:53:33.640Z,5.43
2023-09-17T19:56:01.229Z,5.60
2023-09-17T19:58:28.997Z,5.25
2023-09-17T20:00:59.221Z,5.40
2023-09-17T20:03:27.088Z,5.57
2023-09-17T20:05:54.892Z,5.30
2023-09-17T20:08:22.657Z,5.73
2023-09-17T20:10:50.301Z,5.43
2023-09-17T20:13:17.933Z,5.38
2023-09-17T20:15:48.102Z,5.70
2023-09-17T20:18:17.111Z,5.22
2023-09-17T20:20:47.405Z,5.20
2023-09-17T20:23:15.737Z,5.13
2023-09-17T20:25:45.547Z,5.15
2023-09-17T20:28:14.708Z,4.82
2023-09-17T20:30:43.178Z,5.40
2023-09-17T20:33:11.135Z,5.37
2023-09-17T20:35:40.633Z,5.30
2023-09-17T20:38:08.463Z,5.70
2023-09-17T20:40:36.235Z,5.38
2023-09-17T20:43:04.305Z,5.40
2023-09-17T20:45:32.094Z,4.90
2023-09-17T20:48:00.065Z,6.03
2023-09-17T20:50:27.700Z,5.57
2023-09-17T20:52:57.361Z,5.55
2023-09-17T20:55:27.672Z,5.32
2023-09-17T20:57:55.488Z,5.40
2023-09-17T21:00:23.190Z,5.63
2023-09-17T21:02:51.140Z,5.57
2023-09-17T21:05:18.806Z,5.60
2023-09-17T21:07:47.106Z,5.43
2023-09-17T21:10:16.130Z,5.33
2023-09-17T21:12:43.706Z,5.55
2023-09-17T21:15:12.387Z,5.35
2023-09-17T21:17:42.654Z,5.38
2023-09-17T21:20:18.722Z,5.35
2023-09-17T21:22:47.349Z,5.23
2023-09-17T21:25:17.467Z,5.43
2023-09-17T21:27:46.821Z,5.18
2023-09-17T21:30:14.957Z,5.18
2023-09-17T21:32:43.910Z,5.22
2023-09-17T21:35:12.792Z,5.30
2023-09-17T21:37:40.609Z,5.40
2023-09-17T21:40:09.466Z,5.50
2023-09-17T21:42:38.809Z,5.38
2023-09-17T21:45:07.728Z,5.60
2023-09-17T21:47:35.475Z,5.53
2023-09-17T21:50:03.455Z,5.30
2023-09-17T21:52:31.397Z,5.10
2023-09-17T21:54:59.521Z,5.40
2023-09-17T21:57:27.516Z,4.80
2023-09-17T21:59:56.533Z,5.13
2023-09-17T22:02:24.793Z,5.28
2023-09-17T22:04:52.542Z,5.32
2023-09-17T22:07:20.247Z,5.00
2023-09-17T22:09:47.983Z,5.20
2023-09-17T22:12:15.717Z,4.90
2023-09-17T22:14:43.390Z,5.03
2023-09-17T22:17:12.610Z,5.10
2023-09-17T22:19:41.729Z,5.40
2023-09-17T22:22:09.754Z,5.40
2023-09-17T22:24:37.359Z,5.40
2023-09-17T22:27:05.590Z,5.10
2023-09-17T22:29:33.334Z,5.35
2023-09-17T22:32:01.023Z,4.85
2023-09-17T22:34:30.108Z,5.60
2023-09-17T22:36:57.881Z,5.13
2023-09-17T22:39:25.466Z,4.93
2023-09-17T22:41:53.521Z,5.10
2023-09-17T22:44:24.650Z,5.22
2023-09-17T22:46:53.107Z,5.20
2023-09-17T22:49:20.816Z,5.73
2023-09-17T22:51:49.824Z,4.97
2023-09-17T22:54:17.483Z,6.05
2023-09-17T22:56:45.140Z,5.28
2023-09-17T22:59:12.737Z,5.25
2023-09-17T23:01:40.737Z,5.27
2023-09-17T23:04:08.776Z,5.75
2023-09-17T23:06:36.509Z,5.28
2023-09-17T23:09:05.515Z,5.80
2023-09-17T23:11:33.252Z,5.47
2023-09-17T23:14:06.562Z,5.67
2023-09-17T23:16:34.682Z,5.38
2023-09-17T23:19:02.475Z,5.28
2023-09-17T23:21:30.136Z,5.47
2023-09-17T23:23:59.253Z,5.50
2023-09-17T23:26:28.928Z,5.57
2023-09-17T23:28:56.765Z,6.18
2023-09-17T23:31:26.078Z,5.72
2023-09-17T23:33:53.700Z,5.57
2023-09-17T23:36:21.516Z,5.40
2023-09-17T23:38:50.970Z,5.40
2023-09-17T23:41:18.860Z,5.70
2023-09-17T23:43:47.848Z,5.90
2023-09-17T23:46:15.656Z,5.90
2023-09-17T23:48:43.344Z,5.40
2023-09-17T23:51:10.973Z,5.50
2023-09-17T23:53:38.602Z,5.60
2023-09-17T23:56:06.168Z,5.40
2023-09-17T23:58:33.753Z,5.63
